sensor_id;sensor_type;location;lat;lon;timestamp;temperature;humidity
81192;DHT22;70665;47.652;-2.730;2023-06-24T00:01:15;20.80;57.80
81192;DHT22;70665;47.652;-2.730;2023-06-24T00:03:41;20.80;57.70
81192;DHT22;70665;47.652;-2.730;2023-06-24T00:06:07;20.70;56.90
81192;DHT22;70665;47.652;-2.730;2023-06-24T00:08:32;20.70;57.40
81192;DHT22;70665;47.652;-2.730;2023-06-24T00:11:03;20.70;58.20
81192;DHT22;70665;47.652;-2.730;2023-06-24T00:13:29;20.70;57.00
81192;DHT22;70665;47.652;-2.730;2023-06-24T00:15:55;20.60;59.00
81192;DHT22;70665;47.652;-2.730;2023-06-24T00:18:20;20.60;56.40
81192;DHT22;70665;47.652;-2.730;2023-06-24T00:20:46;20.60;56.90
81192;DHT22;70665;47.652;-2.730;2023-06-24T00:23:16;20.60;60.20
81192;DHT22;70665;47.652;-2.730;2023-06-24T00:25:42;20.50;59.80
81192;DHT22;70665;47.652;-2.730;2023-06-24T00:28:08;20.50;58.70
81192;DHT22;70665;47.652;-2.730;2023-06-24T00:30:33;20.50;57.70
81192;DHT22;70665;47.652;-2.730;2023-06-24T00:32:59;20.50;57.60
81192;DHT22;70665;47.652;-2.730;2023-06-24T00:35:25;20.50;59.50
81192;DHT22;70665;47.652;-2.730;2023-06-24T00:37:50;20.40;60.40
81192;DHT22;70665;47.652;-2.730;2023-06-24T00:40:16;20.40;58.50
81192;DHT22;70665;47.652;-2.730;2023-06-24T00:42:44;20.40;60.10
81192;DHT22;70665;47.652;-2.730;2023-06-24T00:45:11;20.40;59.50
81192;DHT22;70665;47.652;-2.730;2023-06-24T00:47:36;20.30;59.40
81192;DHT22;70665;47.652;-2.730;2023-06-24T00:50:02;20.40;59.20
81192;DHT22;70665;47.652;-2.730;2023-06-24T00:52:28;20.40;59.90
81192;DHT22;70665;47.652;-2.730;2023-06-24T00:54:54;20.30;60.20
81192;DHT22;70665;47.652;-2.730;2023-06-24T00:57:21;20.30;58.30
81192;DHT22;70665;47.652;-2.730;2023-06-24T00:59:49;20.30;58.70
81192;DHT22;70665;47.652;-2.730;2023-06-24T01:02:20;20.30;58.80
81192;DHT22;70665;47.652;-2.730;2023-06-24T01:04:48;20.20;60.50
81192;DHT22;70665;47.652;-2.730;2023-06-24T01:07:14;20.20;58.00
81192;DHT22;70665;47.652;-2.730;2023-06-24T01:09:41;20.20;60.10
81192;DHT22;70665;47.652;-2.730;2023-06-24T01:12:07;20.20;58.30
81192;DHT22;70665;47.652;-2.730;2023-06-24T01:14:35;20.10;59.50
81192;DHT22;70665;47.652;-2.730;2023-06-24T01:17:13;20.20;60.90
81192;DHT22;70665;47.652;-2.730;2023-06-24T01:22:29;20.10;58.10
81192;DHT22;70665;47.652;-2.730;2023-06-24T01:28:22;20.10;61.00
81192;DHT22;70665;47.652;-2.730;2023-06-24T01:31:17;20.00;61.40
81192;DHT22;70665;47.652;-2.730;2023-06-24T01:33:56;20.00;61.20
81192;DHT22;70665;47.652;-2.730;2023-06-24T01:36:25;20.00;59.80
81192;DHT22;70665;47.652;-2.730;2023-06-24T01:39:01;20.00;61.30
81192;DHT22;70665;47.652;-2.730;2023-06-24T01:41:34;20.00;59.70
81192;DHT22;70665;47.652;-2.730;2023-06-24T01:44:01;20.00;58.90
81192;DHT22;70665;47.652;-2.730;2023-06-24T01:46:29;19.90;61.00
81192;DHT22;70665;47.652;-2.730;2023-06-24T01:48:59;19.90;60.80
81192;DHT22;70665;47.652;-2.730;2023-06-24T01:51:26;19.90;59.80
81192;DHT22;70665;47.652;-2.730;2023-06-24T01:54:00;19.90;62.20
81192;DHT22;70665;47.652;-2.730;2023-06-24T01:56:27;19.90;60.40
81192;DHT22;70665;47.652;-2.730;2023-06-24T01:58:56;19.80;60.20
81192;DHT22;70665;47.652;-2.730;2023-06-24T02:01:23;19.90;59.10
81192;DHT22;70665;47.652;-2.730;2023-06-24T02:03:50;19.90;60.90
81192;DHT22;70665;47.652;-2.730;2023-06-24T02:06:18;19.80;61.20
81192;DHT22;70665;47.652;-2.730;2023-06-24T02:08:45;19.70;60.70
81192;DHT22;70665;47.652;-2.730;2023-06-24T02:11:13;19.80;59.90
81192;DHT22;70665;47.652;-2.730;2023-06-24T02:13:40;19.70;61.70
81192;DHT22;70665;47.652;-2.730;2023-06-24T02:16:09;19.80;59.70
81192;DHT22;70665;47.652;-2.730;2023-06-24T02:18:37;19.70;59.70
81192;DHT22;70665;47.652;-2.730;2023-06-24T02:21:04;19.80;59.40
81192;DHT22;70665;47.652;-2.730;2023-06-24T02:23:31;19.70;60.10
81192;DHT22;70665;47.652;-2.730;2023-06-24T02:26:00;19.70;60.40
81192;DHT22;70665;47.652;-2.730;2023-06-24T02:28:27;19.70;60.40
81192;DHT22;70665;47.652;-2.730;2023-06-24T02:30:54;19.80;59.70
81192;DHT22;70665;47.652;-2.730;2023-06-24T02:33:20;19.70;60.80
81192;DHT22;70665;47.652;-2.730;2023-06-24T02:35:45;19.80;62.80
81192;DHT22;70665;47.652;-2.730;2023-06-24T02:38:12;19.70;61.40
81192;DHT22;70665;47.652;-2.730;2023-06-24T02:40:37;19.70;63.10
81192;DHT22;70665;47.652;-2.730;2023-06-24T02:43:03;19.70;60.90
81192;DHT22;70665;47.652;-2.730;2023-06-24T02:45:29;19.60;59.90
81192;DHT22;70665;47.652;-2.730;2023-06-24T02:47:56;19.60;60.10
81192;DHT22;70665;47.652;-2.730;2023-06-24T02:50:23;19.60;59.90
81192;DHT22;70665;47.652;-2.730;2023-06-24T02:52:50;19.70;60.00
81192;DHT22;70665;47.652;-2.730;2023-06-24T02:55:17;19.60;60.00
81192;DHT22;70665;47.652;-2.730;2023-06-24T02:57:42;19.50;64.10
81192;DHT22;70665;47.652;-2.730;2023-06-24T03:00:09;19.50;59.80
81192;DHT22;70665;47.652;-2.730;2023-06-24T03:02:38;19.50;60.40
81192;DHT22;70665;47.652;-2.730;2023-06-24T03:05:04;19.50;64.00
81192;DHT22;70665;47.652;-2.730;2023-06-24T03:07:31;19.60;59.40
81192;DHT22;70665;47.652;-2.730;2023-06-24T03:10:01;19.60;60.20
81192;DHT22;70665;47.652;-2.730;2023-06-24T03:12:28;19.60;60.80
81192;DHT22;70665;47.652;-2.730;2023-06-24T03:14:54;19.60;60.50
81192;DHT22;70665;47.652;-2.730;2023-06-24T03:17:20;19.50;64.60
81192;DHT22;70665;47.652;-2.730;2023-06-24T03:19:45;19.50;61.50
81192;DHT22;70665;47.652;-2.730;2023-06-24T03:22:11;19.50;62.60
81192;DHT22;70665;47.652;-2.730;2023-06-24T03:24:36;19.40;63.70
81192;DHT22;70665;47.652;-2.730;2023-06-24T03:27:03;19.50;63.20
81192;DHT22;70665;47.652;-2.730;2023-06-24T03:29:28;19.50;63.10
81192;DHT22;70665;47.652;-2.730;2023-06-24T03:31:54;19.50;60.90
81192;DHT22;70665;47.652;-2.730;2023-06-24T03:34:19;19.50;65.00
81192;DHT22;70665;47.652;-2.730;2023-06-24T03:36:45;19.40;61.40
81192;DHT22;70665;47.652;-2.730;2023-06-24T03:39:11;19.40;61.80
81192;DHT22;70665;47.652;-2.730;2023-06-24T03:41:37;19.40;64.70
81192;DHT22;70665;47.652;-2.730;2023-06-24T03:44:02;19.40;61.40
81192;DHT22;70665;47.652;-2.730;2023-06-24T03:46:28;19.40;61.30
81192;DHT22;70665;47.652;-2.730;2023-06-24T03:48:58;19.40;64.70
81192;DHT22;70665;47.652;-2.730;2023-06-24T03:51:25;19.40;60.90
81192;DHT22;70665;47.652;-2.730;2023-06-24T03:53:50;19.40;65.10
81192;DHT22;70665;47.652;-2.730;2023-06-24T03:56:17;19.40;61.90
81192;DHT22;70665;47.652;-2.730;2023-06-24T03:58:42;19.30;65.30
81192;DHT22;70665;47.652;-2.730;2023-06-24T04:01:08;19.30;61.90
81192;DHT22;70665;47.652;-2.730;2023-06-24T04:03:35;19.30;62.00
81192;DHT22;70665;47.652;-2.730;2023-06-24T04:06:00;19.20;63.40
81192;DHT22;70665;47.652;-2.730;2023-06-24T04:08:29;19.20;63.40
81192;DHT22;70665;47.652;-2.730;2023-06-24T04:10:55;19.30;65.90
81192;DHT22;70665;47.652;-2.730;2023-06-24T04:13:20;19.30;62.00
81192;DHT22;70665;47.652;-2.730;2023-06-24T04:15:46;19.20;63.40
81192;DHT22;70665;47.652;-2.730;2023-06-24T04:18:12;19.30;62.00
81192;DHT22;70665;47.652;-2.730;2023-06-24T04:20:37;19.20;66.20
81192;DHT22;70665;47.652;-2.730;2023-06-24T04:23:04;19.20;63.10
81192;DHT22;70665;47.652;-2.730;2023-06-24T04:25:30;19.30;63.60
81192;DHT22;70665;47.652;-2.730;2023-06-24T04:27:56;19.20;66.40
81192;DHT22;70665;47.652;-2.730;2023-06-24T04:30:22;19.20;62.80
81192;DHT22;70665;47.652;-2.730;2023-06-24T04:32:48;19.20;67.00
81192;DHT22;70665;47.652;-2.730;2023-06-24T04:35:14;19.30;63.60
81192;DHT22;70665;47.652;-2.730;2023-06-24T04:37:39;19.30;67.00
81192;DHT22;70665;47.652;-2.730;2023-06-24T04:40:05;19.30;64.40
81192;DHT22;70665;47.652;-2.730;2023-06-24T04:42:31;19.50;63.90
81192;DHT22;70665;47.652;-2.730;2023-06-24T04:44:57;19.40;64.70
81192;DHT22;70665;47.652;-2.730;2023-06-24T04:47:22;19.40;63.10
81192;DHT22;70665;47.652;-2.730;2023-06-24T04:49:48;19.50;66.40
81192;DHT22;70665;47.652;-2.730;2023-06-24T04:52:14;19.40;63.90
81192;DHT22;70665;47.652;-2.730;2023-06-24T04:54:39;19.50;64.80
81192;DHT22;70665;47.652;-2.730;2023-06-24T04:57:07;19.50;63.40
81192;DHT22;70665;47.652;-2.730;2023-06-24T04:59:33;19.60;63.50
81192;DHT22;70665;47.652;-2.730;2023-06-24T05:01:59;19.60;62.90
81192;DHT22;70665;47.652;-2.730;2023-06-24T05:04:24;19.70;63.30
81192;DHT22;70665;47.652;-2.730;2023-06-24T05:06:50;19.80;63.70
81192;DHT22;70665;47.652;-2.730;2023-06-24T05:09:15;19.80;64.70
81192;DHT22;70665;47.652;-2.730;2023-06-24T05:11:41;19.80;63.10
81192;DHT22;70665;47.652;-2.730;2023-06-24T05:14:07;19.90;64.00
81192;DHT22;70665;47.652;-2.730;2023-06-24T05:16:33;20.00;63.90
81192;DHT22;70665;47.652;-2.730;2023-06-24T05:18:58;20.00;63.10
81192;DHT22;70665;47.652;-2.730;2023-06-24T05:21:24;20.00;67.80
81192;DHT22;70665;47.652;-2.730;2023-06-24T05:23:49;20.20;64.50
81192;DHT22;70665;47.652;-2.730;2023-06-24T05:26:15;20.20;63.20
81192;DHT22;70665;47.652;-2.730;2023-06-24T05:28:41;20.20;63.00
81192;DHT22;70665;47.652;-2.730;2023-06-24T05:31:06;20.30;63.00
81192;DHT22;70665;47.652;-2.730;2023-06-24T05:33:32;20.40;62.90
81192;DHT22;70665;47.652;-2.730;2023-06-24T05:35:58;20.50;63.70
81192;DHT22;70665;47.652;-2.730;2023-06-24T05:38:23;20.50;63.70
81192;DHT22;70665;47.652;-2.730;2023-06-24T05:40:49;20.60;63.50
81192;DHT22;70665;47.652;-2.730;2023-06-24T05:43:15;20.70;62.70
81192;DHT22;70665;47.652;-2.730;2023-06-24T05:45:40;20.70;63.50
81192;DHT22;70665;47.652;-2.730;2023-06-24T05:48:06;20.80;63.00
81192;DHT22;70665;47.652;-2.730;2023-06-24T05:50:32;20.90;63.10
81192;DHT22;70665;47.652;-2.730;2023-06-24T05:52:58;21.00;64.40
81192;DHT22;70665;47.652;-2.730;2023-06-24T05:55:23;21.10;62.70
81192;DHT22;70665;47.652;-2.730;2023-06-24T05:57:49;21.20;65.00
81192;DHT22;70665;47.652;-2.730;2023-06-24T06:00:16;21.20;61.90
81192;DHT22;70665;47.652;-2.730;2023-06-24T06:02:42;21.30;62.20
81192;DHT22;70665;47.652;-2.730;2023-06-24T06:05:08;21.40;62.70
81192;DHT22;70665;47.652;-2.730;2023-06-24T06:07:34;21.50;62.10
81192;DHT22;70665;47.652;-2.730;2023-06-24T06:10:00;21.70;63.50
81192;DHT22;70665;47.652;-2.730;2023-06-24T06:12:26;21.60;62.60
81192;DHT22;70665;47.652;-2.730;2023-06-24T06:14:51;21.70;62.60
81192;DHT22;70665;47.652;-2.730;2023-06-24T06:17:17;21.70;64.10
81192;DHT22;70665;47.652;-2.730;2023-06-24T06:19:42;21.80;63.50
81192;DHT22;70665;47.652;-2.730;2023-06-24T06:22:12;21.90;63.20
81192;DHT22;70665;47.652;-2.730;2023-06-24T06:24:37;22.00;62.60
81192;DHT22;70665;47.652;-2.730;2023-06-24T06:27:03;22.10;64.10
81192;DHT22;70665;47.652;-2.730;2023-06-24T06:29:29;22.10;61.40
81192;DHT22;70665;47.652;-2.730;2023-06-24T06:31:55;22.20;62.20
81192;DHT22;70665;47.652;-2.730;2023-06-24T06:34:22;22.20;61.80
81192;DHT22;70665;47.652;-2.730;2023-06-24T06:36:48;22.30;64.10
81192;DHT22;70665;47.652;-2.730;2023-06-24T06:39:13;22.40;63.50
81192;DHT22;70665;47.652;-2.730;2023-06-24T06:41:39;22.40;60.80
81192;DHT22;70665;47.652;-2.730;2023-06-24T06:44:04;22.50;60.80
81192;DHT22;70665;47.652;-2.730;2023-06-24T06:46:30;22.60;62.00
81192;DHT22;70665;47.652;-2.730;2023-06-24T06:48:56;22.70;61.90
81192;DHT22;70665;47.652;-2.730;2023-06-24T06:51:22;22.70;60.50
81192;DHT22;70665;47.652;-2.730;2023-06-24T06:53:49;22.80;59.90
81192;DHT22;70665;47.652;-2.730;2023-06-24T06:56:25;22.90;62.80
81192;DHT22;70665;47.652;-2.730;2023-06-24T06:58:51;23.00;60.30
81192;DHT22;70665;47.652;-2.730;2023-06-24T07:01:18;23.00;62.10
81192;DHT22;70665;47.652;-2.730;2023-06-24T07:03:44;23.20;59.60
81192;DHT22;70665;47.652;-2.730;2023-06-24T07:06:10;23.20;59.90
81192;DHT22;70665;47.652;-2.730;2023-06-24T07:08:37;23.20;59.50
81192;DHT22;70665;47.652;-2.730;2023-06-24T07:11:03;23.40;58.70
81192;DHT22;70665;47.652;-2.730;2023-06-24T07:13:28;23.50;58.80
81192;DHT22;70665;47.652;-2.730;2023-06-24T07:15:55;23.50;58.30
81192;DHT22;70665;47.652;-2.730;2023-06-24T07:18:20;23.60;58.60
81192;DHT22;70665;47.652;-2.730;2023-06-24T07:20:46;23.70;59.40
81192;DHT22;70665;47.652;-2.730;2023-06-24T07:23:12;23.80;58.70
81192;DHT22;70665;47.652;-2.730;2023-06-24T07:25:37;24.00;58.10
81192;DHT22;70665;47.652;-2.730;2023-06-24T07:28:03;24.00;60.80
81192;DHT22;70665;47.652;-2.730;2023-06-24T07:30:29;24.10;57.80
81192;DHT22;70665;47.652;-2.730;2023-06-24T07:32:55;24.20;59.10
81192;DHT22;70665;47.652;-2.730;2023-06-24T07:35:20;24.20;58.60
81192;DHT22;70665;47.652;-2.730;2023-06-24T07:37:46;24.20;57.80
81192;DHT22;70665;47.652;-2.730;2023-06-24T07:40:12;24.40;57.10
81192;DHT22;70665;47.652;-2.730;2023-06-24T07:42:38;24.40;57.80
81192;DHT22;70665;47.652;-2.730;2023-06-24T07:45:04;24.50;57.40
81192;DHT22;70665;47.652;-2.730;2023-06-24T07:47:30;24.60;57.20
81192;DHT22;70665;47.652;-2.730;2023-06-24T07:49:57;24.60;57.60
81192;DHT22;70665;47.652;-2.730;2023-06-24T07:52:23;24.60;59.50
81192;DHT22;70665;47.652;-2.730;2023-06-24T07:54:48;24.70;56.90
81192;DHT22;70665;47.652;-2.730;2023-06-24T07:57:14;24.80;56.90
81192;DHT22;70665;47.652;-2.730;2023-06-24T07:59:39;24.80;57.60
81192;DHT22;70665;47.652;-2.730;2023-06-24T08:02:05;24.90;56.50
81192;DHT22;70665;47.652;-2.730;2023-06-24T08:04:30;25.00;56.50
81192;DHT22;70665;47.652;-2.730;2023-06-24T08:06:56;25.10;57.20
81192;DHT22;70665;47.652;-2.730;2023-06-24T08:09:22;25.10;56.80
81192;DHT22;70665;47.652;-2.730;2023-06-24T08:11:47;25.20;55.90
81192;DHT22;70665;47.652;-2.730;2023-06-24T08:14:13;25.30;56.30
81192;DHT22;70665;47.652;-2.730;2023-06-24T08:16:39;25.40;55.90
81192;DHT22;70665;47.652;-2.730;2023-06-24T08:19:04;25.50;55.90
81192;DHT22;70665;47.652;-2.730;2023-06-24T08:21:30;25.50;55.70
81192;DHT22;70665;47.652;-2.730;2023-06-24T08:23:55;25.60;55.40
81192;DHT22;70665;47.652;-2.730;2023-06-24T08:26:21;25.70;54.80
81192;DHT22;70665;47.652;-2.730;2023-06-24T08:28:47;25.80;55.70
81192;DHT22;70665;47.652;-2.730;2023-06-24T08:31:13;25.90;54.90
81192;DHT22;70665;47.652;-2.730;2023-06-24T08:33:41;26.00;54.30
81192;DHT22;70665;47.652;-2.730;2023-06-24T08:36:07;26.10;55.40
81192;DHT22;70665;47.652;-2.730;2023-06-24T08:38:33;26.20;54.80
81192;DHT22;70665;47.652;-2.730;2023-06-24T08:40:58;26.30;54.50
81192;DHT22;70665;47.652;-2.730;2023-06-24T08:43:24;26.40;54.60
81192;DHT22;70665;47.652;-2.730;2023-06-24T08:45:50;26.50;54.00
81192;DHT22;70665;47.652;-2.730;2023-06-24T08:48:16;26.60;54.00
81192;DHT22;70665;47.652;-2.730;2023-06-24T08:50:45;26.70;54.10
81192;DHT22;70665;47.652;-2.730;2023-06-24T08:53:12;26.70;53.60
81192;DHT22;70665;47.652;-2.730;2023-06-24T08:55:44;26.80;54.30
81192;DHT22;70665;47.652;-2.730;2023-06-24T08:58:10;26.90;53.90
81192;DHT22;70665;47.652;-2.730;2023-06-24T09:00:36;26.90;53.50
81192;DHT22;70665;47.652;-2.730;2023-06-24T09:03:02;27.10;53.50
81192;DHT22;70665;47.652;-2.730;2023-06-24T09:05:27;27.10;52.90
81192;DHT22;70665;47.652;-2.730;2023-06-24T09:07:53;27.30;52.80
81192;DHT22;70665;47.652;-2.730;2023-06-24T09:10:35;27.40;52.40
81192;DHT22;70665;47.652;-2.730;2023-06-24T09:13:02;27.40;51.90
81192;DHT22;70665;47.652;-2.730;2023-06-24T09:15:35;27.60;52.70
81192;DHT22;70665;47.652;-2.730;2023-06-24T09:18:02;27.60;52.00
81192;DHT22;70665;47.652;-2.730;2023-06-24T09:20:29;27.80;52.10
81192;DHT22;70665;47.652;-2.730;2023-06-24T09:23:03;27.90;51.30
81192;DHT22;70665;47.652;-2.730;2023-06-24T09:25:29;28.10;50.60
81192;DHT22;70665;47.652;-2.730;2023-06-24T09:28:00;28.10;51.30
81192;DHT22;70665;47.652;-2.730;2023-06-24T09:30:26;28.10;51.10
81192;DHT22;70665;47.652;-2.730;2023-06-24T09:32:52;28.20;50.10
81192;DHT22;70665;47.652;-2.730;2023-06-24T09:35:20;28.30;49.50
81192;DHT22;70665;47.652;-2.730;2023-06-24T09:37:54;28.50;50.10
81192;DHT22;70665;47.652;-2.730;2023-06-24T09:40:21;28.50;48.80
81192;DHT22;70665;47.652;-2.730;2023-06-24T09:42:57;28.60;48.70
81192;DHT22;70665;47.652;-2.730;2023-06-24T09:45:25;28.70;48.70
81192;DHT22;70665;47.652;-2.730;2023-06-24T09:47:52;28.80;49.40
81192;DHT22;70665;47.652;-2.730;2023-06-24T09:50:18;28.90;48.70
81192;DHT22;70665;47.652;-2.730;2023-06-24T09:52:49;29.10;47.60
81192;DHT22;70665;47.652;-2.730;2023-06-24T09:55:16;29.20;49.10
81192;DHT22;70665;47.652;-2.730;2023-06-24T09:57:46;29.40;48.40
81192;DHT22;70665;47.652;-2.730;2023-06-24T10:00:16;29.60;48.00
81192;DHT22;70665;47.652;-2.730;2023-06-24T10:02:44;29.70;47.90
81192;DHT22;70665;47.652;-2.730;2023-06-24T10:05:11;30.00;47.80
81192;DHT22;70665;47.652;-2.730;2023-06-24T10:07:39;30.10;47.00
81192;DHT22;70665;47.652;-2.730;2023-06-24T10:10:05;30.20;46.50
81192;DHT22;70665;47.652;-2.730;2023-06-24T10:12:33;30.30;47.10
81192;DHT22;70665;47.652;-2.730;2023-06-24T10:14:59;30.20;46.40
81192;DHT22;70665;47.652;-2.730;2023-06-24T10:17:26;30.40;46.30
81192;DHT22;70665;47.652;-2.730;2023-06-24T10:19:52;30.50;46.70
81192;DHT22;70665;47.652;-2.730;2023-06-24T10:22:24;30.50;45.60
81192;DHT22;70665;47.652;-2.730;2023-06-24T10:24:52;30.60;45.30
81192;DHT22;70665;47.652;-2.730;2023-06-24T10:27:19;30.70;45.90
81192;DHT22;70665;47.652;-2.730;2023-06-24T10:29:52;30.80;45.10
81192;DHT22;70665;47.652;-2.730;2023-06-24T10:32:19;30.80;44.70
81192;DHT22;70665;47.652;-2.730;2023-06-24T10:34:46;30.90;44.40
81192;DHT22;70665;47.652;-2.730;2023-06-24T10:37:25;30.90;44.90
81192;DHT22;70665;47.652;-2.730;2023-06-24T10:39:51;31.20;44.80
81192;DHT22;70665;47.652;-2.730;2023-06-24T10:45:12;31.50;43.60
81192;DHT22;70665;47.652;-2.730;2023-06-24T10:47:47;31.60;41.60
81192;DHT22;70665;47.652;-2.730;2023-06-24T10:50:18;31.70;42.70
81192;DHT22;70665;47.652;-2.730;2023-06-24T10:52:48;31.90;42.60
81192;DHT22;70665;47.652;-2.730;2023-06-24T10:55:16;32.10;42.50
81192;DHT22;70665;47.652;-2.730;2023-06-24T10:57:43;32.20;42.20
81192;DHT22;70665;47.652;-2.730;2023-06-24T11:00:09;32.30;42.90
81192;DHT22;70665;47.652;-2.730;2023-06-24T11:02:35;32.30;42.30
81192;DHT22;70665;47.652;-2.730;2023-06-24T11:05:03;32.50;43.00
81192;DHT22;70665;47.652;-2.730;2023-06-24T11:07:31;32.50;39.90
81192;DHT22;70665;47.652;-2.730;2023-06-24T11:10:07;32.70;39.80
81192;DHT22;70665;47.652;-2.730;2023-06-24T11:12:35;32.70;42.00
81192;DHT22;70665;47.652;-2.730;2023-06-24T11:15:09;33.00;41.00
81192;DHT22;70665;47.652;-2.730;2023-06-24T11:17:35;33.10;41.30
81192;DHT22;70665;47.652;-2.730;2023-06-24T11:20:02;33.30;41.30
81192;DHT22;70665;47.652;-2.730;2023-06-24T11:22:28;33.40;40.30
81192;DHT22;70665;47.652;-2.730;2023-06-24T11:24:54;33.60;40.90
81192;DHT22;70665;47.652;-2.730;2023-06-24T11:27:25;33.70;38.60
81192;DHT22;70665;47.652;-2.730;2023-06-24T11:29:52;33.80;40.30
81192;DHT22;70665;47.652;-2.730;2023-06-24T11:32:18;33.90;37.30
81192;DHT22;70665;47.652;-2.730;2023-06-24T11:34:44;33.90;39.80
81192;DHT22;70665;47.652;-2.730;2023-06-24T11:37:15;34.00;37.30
81192;DHT22;70665;47.652;-2.730;2023-06-24T11:39:41;34.20;39.20
81192;DHT22;70665;47.652;-2.730;2023-06-24T11:42:11;34.30;38.40
81192;DHT22;70665;47.652;-2.730;2023-06-24T11:44:42;34.40;36.80
81192;DHT22;70665;47.652;-2.730;2023-06-24T11:47:09;34.40;39.10
81192;DHT22;70665;47.652;-2.730;2023-06-24T11:49:49;34.40;36.20
81192;DHT22;70665;47.652;-2.730;2023-06-24T11:52:15;34.50;39.50
81192;DHT22;70665;47.652;-2.730;2023-06-24T11:54:41;34.70;39.30
81192;DHT22;70665;47.652;-2.730;2023-06-24T11:57:08;34.70;37.90
81192;DHT22;70665;47.652;-2.730;2023-06-24T11:59:35;34.70;36.60
81192;DHT22;70665;47.652;-2.730;2023-06-24T12:02:00;34.90;38.60
81192;DHT22;70665;47.652;-2.730;2023-06-24T12:04:32;35.10;35.50
81192;DHT22;70665;47.652;-2.730;2023-06-24T12:06:58;35.30;38.20
81192;DHT22;70665;47.652;-2.730;2023-06-24T12:09:24;35.50;36.70
81192;DHT22;70665;47.652;-2.730;2023-06-24T12:11:51;35.60;37.80
81192;DHT22;70665;47.652;-2.730;2023-06-24T12:14:17;35.70;35.20
81192;DHT22;70665;47.652;-2.730;2023-06-24T12:16:43;35.90;37.00
81192;DHT22;70665;47.652;-2.730;2023-06-24T12:19:09;35.80;34.30
81192;DHT22;70665;47.652;-2.730;2023-06-24T12:21:35;35.70;34.70
81192;DHT22;70665;47.652;-2.730;2023-06-24T12:24:01;36.00;37.20
81192;DHT22;70665;47.652;-2.730;2023-06-24T12:26:27;36.10;36.90
81192;DHT22;70665;47.652;-2.730;2023-06-24T12:28:54;36.40;35.00
81192;DHT22;70665;47.652;-2.730;2023-06-24T12:31:21;36.60;35.90
81192;DHT22;70665;47.652;-2.730;2023-06-24T12:33:47;36.90;33.00
81192;DHT22;70665;47.652;-2.730;2023-06-24T12:36:12;36.90;32.50
81192;DHT22;70665;47.652;-2.730;2023-06-24T12:38:38;36.80;33.30
81192;DHT22;70665;47.652;-2.730;2023-06-24T12:41:04;36.70;34.50
81192;DHT22;70665;47.652;-2.730;2023-06-24T12:43:29;37.00;34.10
81192;DHT22;70665;47.652;-2.730;2023-06-24T12:45:55;37.40;32.20
81192;DHT22;70665;47.652;-2.730;2023-06-24T12:48:21;37.70;35.30
81192;DHT22;70665;47.652;-2.730;2023-06-24T12:50:46;37.80;35.60
81192;DHT22;70665;47.652;-2.730;2023-06-24T12:53:14;38.10;34.40
81192;DHT22;70665;47.652;-2.730;2023-06-24T12:55:41;38.40;33.90
81192;DHT22;70665;47.652;-2.730;2023-06-24T12:58:07;38.40;31.00
81192;DHT22;70665;47.652;-2.730;2023-06-24T13:00:33;38.70;33.20
81192;DHT22;70665;47.652;-2.730;2023-06-24T13:02:58;39.00;31.40
81192;DHT22;70665;47.652;-2.730;2023-06-24T13:05:24;39.20;33.90
81192;DHT22;70665;47.652;-2.730;2023-06-24T13:07:51;39.50;32.20
81192;DHT22;70665;47.652;-2.730;2023-06-24T13:10:17;39.60;32.70
81192;DHT22;70665;47.652;-2.730;2023-06-24T13:12:43;39.80;32.70
81192;DHT22;70665;47.652;-2.730;2023-06-24T13:15:08;40.20;32.90
81192;DHT22;70665;47.652;-2.730;2023-06-24T13:17:35;40.00;31.70
81192;DHT22;70665;47.652;-2.730;2023-06-24T13:20:02;39.90;31.20
81192;DHT22;70665;47.652;-2.730;2023-06-24T13:22:29;39.90;31.30
81192;DHT22;70665;47.652;-2.730;2023-06-24T13:24:55;39.90;33.00
81192;DHT22;70665;47.652;-2.730;2023-06-24T13:27:22;39.90;32.80
81192;DHT22;70665;47.652;-2.730;2023-06-24T13:29:48;39.50;32.10
81192;DHT22;70665;47.652;-2.730;2023-06-24T13:32:13;39.70;34.10
81192;DHT22;70665;47.652;-2.730;2023-06-24T13:34:39;40.40;33.50
81192;DHT22;70665;47.652;-2.730;2023-06-24T13:37:05;40.70;32.30
81192;DHT22;70665;47.652;-2.730;2023-06-24T13:39:31;40.20;31.20
81192;DHT22;70665;47.652;-2.730;2023-06-24T13:41:57;39.80;33.20
81192;DHT22;70665;47.652;-2.730;2023-06-24T13:44:24;40.00;31.90
81192;DHT22;70665;47.652;-2.730;2023-06-24T13:46:50;39.80;31.10
81192;DHT22;70665;47.652;-2.730;2023-06-24T13:49:19;39.90;30.80
81192;DHT22;70665;47.652;-2.730;2023-06-24T13:51:45;40.20;31.50
81192;DHT22;70665;47.652;-2.730;2023-06-24T13:54:11;40.30;29.90
81192;DHT22;70665;47.652;-2.730;2023-06-24T13:56:37;40.00;31.30
81192;DHT22;70665;47.652;-2.730;2023-06-24T13:59:04;39.60;32.40
81192;DHT22;70665;47.652;-2.730;2023-06-24T14:01:31;40.10;33.00
81192;DHT22;70665;47.652;-2.730;2023-06-24T14:03:57;40.30;30.50
81192;DHT22;70665;47.652;-2.730;2023-06-24T14:06:23;40.30;32.30
81192;DHT22;70665;47.652;-2.730;2023-06-24T14:08:50;40.30;31.30
81192;DHT22;70665;47.652;-2.730;2023-06-24T14:11:17;40.70;30.10
81192;DHT22;70665;47.652;-2.730;2023-06-24T14:13:43;40.80;30.20
81192;DHT22;70665;47.652;-2.730;2023-06-24T14:16:09;40.90;32.10
81192;DHT22;70665;47.652;-2.730;2023-06-24T14:18:38;41.50;31.70
81192;DHT22;70665;47.652;-2.730;2023-06-24T14:21:05;42.20;28.50
81192;DHT22;70665;47.652;-2.730;2023-06-24T14:23:32;41.60;31.50
81192;DHT22;70665;47.652;-2.730;2023-06-24T14:25:58;41.60;28.80
81192;DHT22;70665;47.652;-2.730;2023-06-24T14:28:24;41.70;31.70
81192;DHT22;70665;47.652;-2.730;2023-06-24T14:30:51;41.80;27.90
81192;DHT22;70665;47.652;-2.730;2023-06-24T14:33:17;42.20;29.20
81192;DHT22;70665;47.652;-2.730;2023-06-24T14:35:43;42.10;30.40
81192;DHT22;70665;47.652;-2.730;2023-06-24T14:38:08;42.70;28.40
81192;DHT22;70665;47.652;-2.730;2023-06-24T14:40:34;43.10;31.00
81192;DHT22;70665;47.652;-2.730;2023-06-24T14:43:00;43.00;29.40
81192;DHT22;70665;47.652;-2.730;2023-06-24T14:45:26;42.90;26.90
81192;DHT22;70665;47.652;-2.730;2023-06-24T14:47:51;43.50;26.60
81192;DHT22;70665;47.652;-2.730;2023-06-24T14:50:17;43.90;27.90
81192;DHT22;70665;47.652;-2.730;2023-06-24T14:52:43;44.50;28.50
81192;DHT22;70665;47.652;-2.730;2023-06-24T14:55:09;44.80;30.50
81192;DHT22;70665;47.652;-2.730;2023-06-24T14:57:35;45.00;26.80
81192;DHT22;70665;47.652;-2.730;2023-06-24T15:00:01;45.20;28.30
81192;DHT22;70665;47.652;-2.730;2023-06-24T15:02:27;45.30;30.00
81192;DHT22;70665;47.652;-2.730;2023-06-24T15:04:53;45.00;27.10
81192;DHT22;70665;47.652;-2.730;2023-06-24T15:07:18;45.30;27.90
81192;DHT22;70665;47.652;-2.730;2023-06-24T15:09:44;45.90;29.40
81192;DHT22;70665;47.652;-2.730;2023-06-24T15:12:10;46.20;27.50
81192;DHT22;70665;47.652;-2.730;2023-06-24T15:14:36;46.30;26.90
81192;DHT22;70665;47.652;-2.730;2023-06-24T15:17:02;46.80;25.70
81192;DHT22;70665;47.652;-2.730;2023-06-24T15:19:27;47.00;27.40
81192;DHT22;70665;47.652;-2.730;2023-06-24T15:21:53;47.30;24.70